sensor_id;sensor_type;location;lat;lon;timestamp;P1;durP1;ratioP1;P2;durP2;ratioP2
38264;SDS011;24062;47.480;8.768;2022-12-10T00:01:19;3.50;;;3.20;;
38264;SDS011;24062;47.480;8.768;2022-12-10T00:03:49;2.60;;;2.30;;
38264;SDS011;24062;47.480;8.768;2022-12-10T00:06:16;3.17;;;2.50;;
38264;SDS011;24062;47.480;8.768;2022-12-10T00:08:44;3.10;;;2.50;;
38264;SDS011;24062;47.480;8.768;2022-12-10T00:11:12;3.20;;;2.27;;
38264;SDS011;24062;47.480;8.768;2022-12-10T00:13:40;3.80;;;2.80;;
38264;SDS011;24062;47.480;8.768;2022-12-10T00:16:09;2.80;;;2.40;;
38264;SDS011;24062;47.480;8.768;2022-12-10T00:18:37;2.57;;;2.37;;
38264;SDS011;24062;47.480;8.768;2022-12-10T00:21:06;2.70;;;2.50;;
38264;SDS011;24062;47.480;8.768;2022-12-10T00:23:36;2.63;;;2.43;;
38264;SDS011;24062;47.480;8.768;2022-12-10T00:26:04;2.60;;;2.40;;
38264;SDS011;24062;47.480;8.768;2022-12-10T00:28:32;4.40;;;2.70;;
38264;SDS011;24062;47.480;8.768;2022-12-10T00:31:03;2.83;;;2.53;;
38264;SDS011;24062;47.480;8.768;2022-12-10T00:33:31;7.80;;;2.70;;
38264;SDS011;24062;47.480;8.768;2022-12-10T00:36:01;4.10;;;2.50;;
38264;SDS011;24062;47.480;8.768;2022-12-10T00:38:30;3.77;;;2.60;;
38264;SDS011;24062;47.480;8.768;2022-12-10T00:40:57;2.43;;;2.20;;
38264;SDS011;24062;47.480;8.768;2022-12-10T00:43:25;2.60;;;2.37;;
38264;SDS011;24062;47.480;8.768;2022-12-10T00:45:52;2.47;;;2.23;;
38264;SDS011;24062;47.480;8.768;2022-12-10T00:48:20;3.10;;;2.77;;
38264;SDS011;24062;47.480;8.768;2022-12-10T00:50:54;2.60;;;2.37;;
38264;SDS011;24062;47.480;8.768;2022-12-10T00:53:22;2.50;;;2.27;;
38264;SDS011;24062;47.480;8.768;2022-12-10T00:55:51;2.93;;;2.63;;
38264;SDS011;24062;47.480;8.768;2022-12-10T00:58:18;2.57;;;2.37;;
38264;SDS011;24062;47.480;8.768;2022-12-10T01:00:45;2.63;;;2.43;;
38264;SDS011;24062;47.480;8.768;2022-12-10T01:03:12;3.10;;;2.80;;
38264;SDS011;24062;47.480;8.768;2022-12-10T01:05:39;2.70;;;2.27;;
38264;SDS011;24062;47.480;8.768;2022-12-10T01:08:06;2.27;;;1.90;;
38264;SDS011;24062;47.480;8.768;2022-12-10T01:10:33;2.57;;;2.30;;
38264;SDS011;24062;47.480;8.768;2022-12-10T01:13:02;2.60;;;2.40;;
38264;SDS011;24062;47.480;8.768;2022-12-10T01:15:29;3.03;;;2.73;;
38264;SDS011;24062;47.480;8.768;2022-12-10T01:17:56;2.47;;;2.20;;
38264;SDS011;24062;47.480;8.768;2022-12-10T01:20:23;3.40;;;2.50;;
38264;SDS011;24062;47.480;8.768;2022-12-10T01:22:50;3.23;;;2.40;;
38264;SDS011;24062;47.480;8.768;2022-12-10T01:25:16;2.60;;;2.40;;
38264;SDS011;24062;47.480;8.768;2022-12-10T01:27:43;2.60;;;2.40;;
38264;SDS011;24062;47.480;8.768;2022-12-10T01:30:12;3.20;;;2.90;;
38264;SDS011;24062;47.480;8.768;2022-12-10T01:32:39;5.27;;;2.40;;
38264;SDS011;24062;47.480;8.768;2022-12-10T01:35:06;2.37;;;2.13;;
38264;SDS011;24062;47.480;8.768;2022-12-10T01:37:34;2.60;;;2.40;;
38264;SDS011;24062;47.480;8.768;2022-12-10T01:40:01;2.50;;;2.10;;
38264;SDS011;24062;47.480;8.768;2022-12-10T01:42:28;2.80;;;2.50;;
38264;SDS011;24062;47.480;8.768;2022-12-10T01:45:04;2.57;;;2.37;;
38264;SDS011;24062;47.480;8.768;2022-12-10T01:47:36;2.57;;;2.03;;
38264;SDS011;24062;47.480;8.768;2022-12-10T01:50:03;2.87;;;2.40;;
38264;SDS011;24062;47.480;8.768;2022-12-10T01:52:33;5.23;;;2.50;;
38264;SDS011;24062;47.480;8.768;2022-12-10T01:55:00;2.63;;;2.07;;
38264;SDS011;24062;47.480;8.768;2022-12-10T01:57:27;2.50;;;2.30;;
38264;SDS011;24062;47.480;8.768;2022-12-10T01:59:55;2.70;;;2.37;;
38264;SDS011;24062;47.480;8.768;2022-12-10T02:02:30;2.80;;;2.50;;
38264;SDS011;24062;47.480;8.768;2022-12-10T02:05:12;2.70;;;2.30;;
38264;SDS011;24062;47.480;8.768;2022-12-10T02:07:51;2.50;;;2.30;;
38264;SDS011;24062;47.480;8.768;2022-12-10T02:10:26;4.37;;;2.30;;
38264;SDS011;24062;47.480;8.768;2022-12-10T02:13:05;3.03;;;2.70;;
38264;SDS011;24062;47.480;8.768;2022-12-10T02:15:39;2.93;;;2.50;;
38264;SDS011;24062;47.480;8.768;2022-12-10T02:18:11;2.83;;;2.53;;
38264;SDS011;24062;47.480;8.768;2022-12-10T02:20:43;3.10;;;2.30;;
38264;SDS011;24062;47.480;8.768;2022-12-10T02:23:15;3.10;;;2.03;;
38264;SDS011;24062;47.480;8.768;2022-12-10T02:25:48;2.47;;;2.27;;
38264;SDS011;24062;47.480;8.768;2022-12-10T02:28:21;2.27;;;2.07;;
38264;SDS011;24062;47.480;8.768;2022-12-10T02:30:55;2.60;;;2.40;;
38264;SDS011;24062;47.480;8.768;2022-12-10T02:33:24;2.53;;;2.33;;
38264;SDS011;24062;47.480;8.768;2022-12-10T02:35:54;3.20;;;2.90;;
38264;SDS011;24062;47.480;8.768;2022-12-10T02:38:24;2.63;;;2.43;;
38264;SDS011;24062;47.480;8.768;2022-12-10T02:40:54;3.60;;;2.53;;
38264;SDS011;24062;47.480;8.768;2022-12-10T02:43:24;2.67;;;2.20;;
38264;SDS011;24062;47.480;8.768;2022-12-10T02:45:55;2.43;;;2.03;;
38264;SDS011;24062;47.480;8.768;2022-12-10T02:48:23;2.40;;;2.10;;
38264;SDS011;24062;47.480;8.768;2022-12-10T02:50:51;2.33;;;2.10;;
38264;SDS011;24062;47.480;8.768;2022-12-10T02:53:18;2.37;;;2.17;;
38264;SDS011;24062;47.480;8.768;2022-12-10T02:55:53;2.40;;;2.20;;
38264;SDS011;24062;47.480;8.768;2022-12-10T02:58:28;2.80;;;2.50;;
38264;SDS011;24062;47.480;8.768;2022-12-10T03:01:05;2.83;;;2.63;;
38264;SDS011;24062;47.480;8.768;2022-12-10T03:03:40;3.83;;;2.50;;
38264;SDS011;24062;47.480;8.768;2022-12-10T03:06:15;2.67;;;2.47;;
38264;SDS011;24062;47.480;8.768;2022-12-10T03:08:47;2.60;;;2.10;;
38264;SDS011;24062;47.480;8.768;2022-12-10T03:11:18;2.70;;;2.00;;
38264;SDS011;24062;47.480;8.768;2022-12-10T03:13:49;2.53;;;2.27;;
38264;SDS011;24062;47.480;8.768;2022-12-10T03:16:22;2.60;;;2.37;;
38264;SDS011;24062;47.480;8.768;2022-12-10T03:18:52;3.67;;;2.50;;
38264;SDS011;24062;47.480;8.768;2022-12-10T03:21:22;5.00;;;2.20;;
38264;SDS011;24062;47.480;8.768;2022-12-10T03:23:52;2.57;;;2.20;;
38264;SDS011;24062;47.480;8.768;2022-12-10T03:26:19;2.70;;;2.50;;
38264;SDS011;24062;47.480;8.768;2022-12-10T03:28:49;2.60;;;2.40;;
38264;SDS011;24062;47.480;8.768;2022-12-10T03:31:18;2.40;;;2.20;;
38264;SDS011;24062;47.480;8.768;2022-12-10T03:33:47;2.27;;;1.97;;
38264;SDS011;24062;47.480;8.768;2022-12-10T03:36:15;2.50;;;2.30;;
38264;SDS011;24062;47.480;8.768;2022-12-10T03:38:44;7.97;;;2.70;;
38264;SDS011;24062;47.480;8.768;2022-12-10T03:41:11;2.20;;;2.00;;
38264;SDS011;24062;47.480;8.768;2022-12-10T03:46:21;2.53;;;2.33;;
38264;SDS011;24062;47.480;8.768;2022-12-10T03:48:50;2.20;;;1.90;;
38264;SDS011;24062;47.480;8.768;2022-12-10T03:51:17;3.10;;;2.50;;
38264;SDS011;24062;47.480;8.768;2022-12-10T03:53:44;2.73;;;2.30;;
38264;SDS011;24062;47.480;8.768;2022-12-10T03:56:13;2.57;;;2.20;;
38264;SDS011;24062;47.480;8.768;2022-12-10T03:58:40;2.80;;;2.50;;
38264;SDS011;24062;47.480;8.768;2022-12-10T04:01:08;2.50;;;2.20;;
38264;SDS011;24062;47.480;8.768;2022-12-10T04:03:35;2.53;;;2.33;;
38264;SDS011;24062;47.480;8.768;2022-12-10T04:06:04;2.60;;;2.20;;
38264;SDS011;24062;47.480;8.768;2022-12-10T04:08:34;4.17;;;2.57;;
38264;SDS011;24062;47.480;8.768;2022-12-10T04:11:02;3.20;;;2.27;;
38264;SDS011;24062;47.480;8.768;2022-12-10T04:13:31;2.57;;;2.30;;
38264;SDS011;24062;47.480;8.768;2022-12-10T04:16:12;2.60;;;2.17;;
38264;SDS011;24062;47.480;8.768;2022-12-10T04:18:54;2.43;;;2.23;;
38264;SDS011;24062;47.480;8.768;2022-12-10T04:21:24;3.27;;;2.20;;
38264;SDS011;24062;47.480;8.768;2022-12-10T04:24:10;3.20;;;1.90;;
38264;SDS011;24062;47.480;8.768;2022-12-10T04:26:55;3.27;;;1.90;;
38264;SDS011;24062;47.480;8.768;2022-12-10T04:29:24;2.20;;;1.90;;
38264;SDS011;24062;47.480;8.768;2022-12-10T04:31:52;2.73;;;2.30;;
38264;SDS011;24062;47.480;8.768;2022-12-10T04:34:20;2.60;;;2.40;;
38264;SDS011;24062;47.480;8.768;2022-12-10T04:36:48;3.27;;;2.00;;
38264;SDS011;24062;47.480;8.768;2022-12-10T04:39:15;2.17;;;1.77;;
38264;SDS011;24062;47.480;8.768;2022-12-10T04:41:43;2.27;;;2.00;;
38264;SDS011;24062;47.480;8.768;2022-12-10T04:44:11;2.33;;;2.00;;
38264;SDS011;24062;47.480;8.768;2022-12-10T04:46:39;2.30;;;2.07;;
38264;SDS011;24062;47.480;8.768;2022-12-10T04:49:06;4.00;;;2.20;;
38264;SDS011;24062;47.480;8.768;2022-12-10T04:51:33;2.60;;;2.30;;
38264;SDS011;24062;47.480;8.768;2022-12-10T04:54:02;2.40;;;2.00;;
38264;SDS011;24062;47.480;8.768;2022-12-10T04:56:29;2.03;;;1.70;;
38264;SDS011;24062;47.480;8.768;2022-12-10T04:58:56;2.27;;;2.07;;
38264;SDS011;24062;47.480;8.768;2022-12-10T05:01:24;2.67;;;1.93;;
38264;SDS011;24062;47.480;8.768;2022-12-10T05:03:52;2.40;;;2.13;;
38264;SDS011;24062;47.480;8.768;2022-12-10T05:06:19;2.10;;;1.90;;
38264;SDS011;24062;47.480;8.768;2022-12-10T05:08:46;2.20;;;1.73;;
38264;SDS011;24062;47.480;8.768;2022-12-10T05:11:15;2.00;;;1.70;;
38264;SDS011;24062;47.480;8.768;2022-12-10T05:13:44;2.10;;;1.87;;
38264;SDS011;24062;47.480;8.768;2022-12-10T05:16:12;2.33;;;2.00;;
38264;SDS011;24062;47.480;8.768;2022-12-10T05:18:40;2.30;;;2.00;;
38264;SDS011;24062;47.480;8.768;2022-12-10T05:21:09;2.20;;;2.00;;
38264;SDS011;24062;47.480;8.768;2022-12-10T05:23:39;2.37;;;2.17;;
38264;SDS011;24062;47.480;8.768;2022-12-10T05:26:07;2.23;;;2.03;;
38264;SDS011;24062;47.480;8.768;2022-12-10T05:28:38;2.20;;;1.90;;
38264;SDS011;24062;47.480;8.768;2022-12-10T05:31:10;2.27;;;2.07;;
38264;SDS011;24062;47.480;8.768;2022-12-10T05:33:39;2.67;;;2.23;;
38264;SDS011;24062;47.480;8.768;2022-12-10T05:36:06;2.30;;;2.00;;
38264;SDS011;24062;47.480;8.768;2022-12-10T05:38:33;2.40;;;1.87;;
38264;SDS011;24062;47.480;8.768;2022-12-10T05:41:01;2.20;;;2.00;;
38264;SDS011;24062;47.480;8.768;2022-12-10T05:43:28;2.50;;;2.27;;
38264;SDS011;24062;47.480;8.768;2022-12-10T05:45:59;2.40;;;2.07;;
38264;SDS011;24062;47.480;8.768;2022-12-10T05:48:27;2.50;;;1.90;;
38264;SDS011;24062;47.480;8.768;2022-12-10T05:50:54;2.47;;;2.13;;
38264;SDS011;24062;47.480;8.768;2022-12-10T05:53:21;2.20;;;1.77;;
38264;SDS011;24062;47.480;8.768;2022-12-10T05:55:48;1.97;;;1.70;;
38264;SDS011;24062;47.480;8.768;2022-12-10T05:58:15;2.20;;;1.80;;
38264;SDS011;24062;47.480;8.768;2022-12-10T06:00:42;2.10;;;1.83;;
38264;SDS011;24062;47.480;8.768;2022-12-10T06:03:11;2.20;;;1.80;;
38264;SDS011;24062;47.480;8.768;2022-12-10T06:05:38;2.07;;;1.87;;
38264;SDS011;24062;47.480;8.768;2022-12-10T06:08:06;2.60;;;2.20;;
38264;SDS011;24062;47.480;8.768;2022-12-10T06:10:33;2.13;;;1.93;;
38264;SDS011;24062;47.480;8.768;2022-12-10T06:13:01;2.20;;;1.57;;
38264;SDS011;24062;47.480;8.768;2022-12-10T06:15:28;2.40;;;2.07;;
38264;SDS011;24062;47.480;8.768;2022-12-10T06:17:55;2.23;;;2.03;;
38264;SDS011;24062;47.480;8.768;2022-12-10T06:20:24;2.30;;;1.90;;
38264;SDS011;24062;47.480;8.768;2022-12-10T06:22:52;2.53;;;2.33;;
38264;SDS011;24062;47.480;8.768;2022-12-10T06:25:18;2.70;;;2.40;;
38264;SDS011;24062;47.480;8.768;2022-12-10T06:27:45;2.10;;;1.80;;
38264;SDS011;24062;47.480;8.768;2022-12-10T06:30:12;2.10;;;1.90;;
38264;SDS011;24062;47.480;8.768;2022-12-10T06:32:39;2.57;;;2.27;;
38264;SDS011;24062;47.480;8.768;2022-12-10T06:35:08;2.00;;;1.67;;
38264;SDS011;24062;47.480;8.768;2022-12-10T06:37:37;2.43;;;2.23;;
38264;SDS011;24062;47.480;8.768;2022-12-10T06:40:04;2.23;;;1.77;;
38264;SDS011;24062;47.480;8.768;2022-12-10T06:42:32;2.17;;;1.77;;
38264;SDS011;24062;47.480;8.768;2022-12-10T06:44:59;3.13;;;2.47;;
38264;SDS011;24062;47.480;8.768;2022-12-10T06:47:26;2.17;;;1.97;;
38264;SDS011;24062;47.480;8.768;2022-12-10T06:49:53;2.77;;;2.27;;
38264;SDS011;24062;47.480;8.768;2022-12-10T06:52:20;1.80;;;1.53;;
38264;SDS011;24062;47.480;8.768;2022-12-10T06:54:48;2.10;;;1.83;;
38264;SDS011;24062;47.480;8.768;2022-12-10T06:57:15;2.80;;;2.00;;
38264;SDS011;24062;47.480;8.768;2022-12-10T06:59:42;2.87;;;2.27;;
38264;SDS011;24062;47.480;8.768;2022-12-10T07:02:09;2.30;;;2.10;;
38264;SDS011;24062;47.480;8.768;2022-12-10T07:04:36;5.07;;;2.10;;
38264;SDS011;24062;47.480;8.768;2022-12-10T07:07:03;2.70;;;2.37;;
38264;SDS011;24062;47.480;8.768;2022-12-10T07:09:31;3.57;;;1.70;;
38264;SDS011;24062;47.480;8.768;2022-12-10T07:12:00;3.10;;;2.47;;
38264;SDS011;24062;47.480;8.768;2022-12-10T07:14:27;4.50;;;2.50;;
38264;SDS011;24062;47.480;8.768;2022-12-10T07:16:53;3.47;;;2.27;;
38264;SDS011;24062;47.480;8.768;2022-12-10T07:19:20;2.80;;;2.00;;
38264;SDS011;24062;47.480;8.768;2022-12-10T07:21:47;2.50;;;1.83;;
38264;SDS011;24062;47.480;8.768;2022-12-10T07:24:17;2.90;;;2.20;;
38264;SDS011;24062;47.480;8.768;2022-12-10T07:26:45;2.60;;;2.13;;
38264;SDS011;24062;47.480;8.768;2022-12-10T07:29:14;2.40;;;2.20;;
38264;SDS011;24062;47.480;8.768;2022-12-10T07:31:42;2.20;;;2.00;;
38264;SDS011;24062;47.480;8.768;2022-12-10T07:34:10;4.57;;;2.07;;
38264;SDS011;24062;47.480;8.768;2022-12-10T07:36:38;3.00;;;2.20;;
38264;SDS011;24062;47.480;8.768;2022-12-10T07:39:06;2.50;;;2.10;;
38264;SDS011;24062;47.480;8.768;2022-12-10T07:41:34;8.03;;;2.70;;
38264;SDS011;24062;47.480;8.768;2022-12-10T07:44:02;5.50;;;2.00;;
38264;SDS011;24062;47.480;8.768;2022-12-10T07:46:33;3.03;;;2.63;;
38264;SDS011;24062;47.480;8.768;2022-12-10T07:49:00;10.30;;;2.57;;
38264;SDS011;24062;47.480;8.768;2022-12-10T07:51:28;3.10;;;2.57;;
38264;SDS011;24062;47.480;8.768;2022-12-10T07:53:55;3.23;;;2.10;;
38264;SDS011;24062;47.480;8.768;2022-12-10T07:56:23;2.87;;;2.13;;
38264;SDS011;24062;47.480;8.768;2022-12-10T07:58:50;7.30;;;2.50;;
38264;SDS011;24062;47.480;8.768;2022-12-10T08:01:19;2.90;;;2.47;;
38264;SDS011;24062;47.480;8.768;2022-12-10T08:03:49;3.63;;;2.30;;
38264;SDS011;24062;47.480;8.768;2022-12-10T08:06:17;2.60;;;2.20;;
38264;SDS011;24062;47.480;8.768;2022-12-10T08:08:45;3.90;;;1.93;;
38264;SDS011;24062;47.480;8.768;2022-12-10T08:11:13;3.30;;;2.50;;
38264;SDS011;24062;47.480;8.768;2022-12-10T08:13:42;3.63;;;2.30;;
38264;SDS011;24062;47.480;8.768;2022-12-10T08:16:11;3.90;;;2.50;;
38264;SDS011;24062;47.480;8.768;2022-12-10T08:18:39;4.83;;;3.00;;
38264;SDS011;24062;47.480;8.768;2022-12-10T08:21:09;8.53;;;2.30;;
38264;SDS011;24062;47.480;8.768;2022-12-10T08:23:37;18.63;;;3.50;;
38264;SDS011;24062;47.480;8.768;2022-12-10T08:26:04;4.77;;;2.17;;
38264;SDS011;24062;47.480;8.768;2022-12-10T08:28:31;3.97;;;2.37;;
38264;SDS011;24062;47.480;8.768;2022-12-10T08:30:59;4.47;;;2.37;;
38264;SDS011;24062;47.480;8.768;2022-12-10T08:33:26;7.00;;;2.93;;
38264;SDS011;24062;47.480;8.768;2022-12-10T08:35:56;3.30;;;2.30;;
38264;SDS011;24062;47.480;8.768;2022-12-10T08:38:25;3.30;;;2.43;;
38264;SDS011;24062;47.480;8.768;2022-12-10T08:40:52;2.73;;;2.33;;
38264;SDS011;24062;47.480;8.768;2022-12-10T08:43:20;3.93;;;2.90;;
38264;SDS011;24062;47.480;8.768;2022-12-10T08:45:47;4.67;;;2.60;;
38264;SDS011;24062;47.480;8.768;2022-12-10T08:48:14;3.70;;;2.60;;
38264;SDS011;24062;47.480;8.768;2022-12-10T08:50:40;3.43;;;2.57;;
38264;SDS011;24062;47.480;8.768;2022-12-10T08:53:07;3.80;;;2.40;;
38264;SDS011;24062;47.480;8.768;2022-12-10T08:55:38;4.37;;;2.80;;
38264;SDS011;24062;47.480;8.768;2022-12-10T08:58:05;3.57;;;2.40;;
38264;SDS011;24062;47.480;8.768;2022-12-10T09:00:33;3.10;;;2.43;;
38264;SDS011;24062;47.480;8.768;2022-12-10T09:03:00;4.60;;;2.27;;
38264;SDS011;24062;47.480;8.768;2022-12-10T09:05:27;4.80;;;2.27;;
38264;SDS011;24062;47.480;8.768;2022-12-10T09:07:54;2.80;;;2.40;;
38264;SDS011;24062;47.480;8.768;2022-12-10T09:10:21;5.50;;;2.97;;
38264;SDS011;24062;47.480;8.768;2022-12-10T09:12:49;4.43;;;2.63;;
38264;SDS011;24062;47.480;8.768;2022-12-10T09:15:16;5.60;;;2.50;;
38264;SDS011;24062;47.480;8.768;2022-12-10T09:17:43;3.10;;;2.23;;
38264;SDS011;24062;47.480;8.768;2022-12-10T09:20:10;4.40;;;3.20;;
38264;SDS011;24062;47.480;8.768;2022-12-10T09:22:37;4.00;;;2.47;;
38264;SDS011;24062;47.480;8.768;2022-12-10T09:25:05;5.70;;;2.50;;
38264;SDS011;24062;47.480;8.768;2022-12-10T09:27:35;3.07;;;2.30;;
38264;SDS011;24062;47.480;8.768;2022-12-10T09:30:04;4.50;;;2.70;;
38264;SDS011;24062;47.480;8.768;2022-12-10T09:32:32;5.67;;;3.13;;
38264;SDS011;24062;47.480;8.768;2022-12-10T09:34:59;3.30;;;2.00;;
38264;SDS011;24062;47.480;8.768;2022-12-10T09:37:26;2.47;;;2.17;;
38264;SDS011;24062;47.480;8.768;2022-12-10T09:39:53;4.90;;;2.47;;
38264;SDS011;24062;47.480;8.768;2022-12-10T09:42:22;4.73;;;2.30;;
38264;SDS011;24062;47.480;8.768;2022-12-10T09:45:02;3.93;;;2.60;;
38264;SDS011;24062;47.480;8.768;2022-12-10T09:47:35;4.07;;;2.70;;
38264;SDS011;24062;47.480;8.768;2022-12-10T09:50:11;3.63;;;2.40;;
38264;SDS011;24062;47.480;8.768;2022-12-10T09:52:45;3.50;;;2.07;;
38264;SDS011;24062;47.480;8.768;2022-12-10T09:55:15;2.37;;;2.17;;
38264;SDS011;24062;47.480;8.768;2022-12-10T09:57:45;2.90;;;2.60;;
38264;SDS011;24062;47.480;8.768;2022-12-10T10:00:20;2.83;;;2.20;;
38264;SDS011;24062;47.480;8.768;2022-12-10T10:02:49;3.10;;;2.20;;
38264;SDS011;24062;47.480;8.768;2022-12-10T10:05:19;3.43;;;2.30;;
38264;SDS011;24062;47.480;8.768;2022-12-10T10:07:48;4.73;;;2.00;;
38264;SDS011;24062;47.480;8.768;2022-12-10T10:10:23;2.50;;;1.97;;
38264;SDS011;24062;47.480;8.768;2022-12-10T10:12:52;3.17;;;2.00;;
38264;SDS011;24062;47.480;8.768;2022-12-10T10:15:24;3.73;;;2.40;;
38264;SDS011;24062;47.480;8.768;2022-12-10T10:17:56;4.13;;;2.27;;
38264;SDS011;24062;47.480;8.768;2022-12-10T10:20:27;2.80;;;2.00;;
38264;SDS011;24062;47.480;8.768;2022-12-10T10:22:55;3.83;;;1.93;;
38264;SDS011;24062;47.480;8.768;2022-12-10T10:25:22;3.73;;;2.27;;
38264;SDS011;24062;47.480;8.768;2022-12-10T10:27:50;7.17;;;2.70;;
38264;SDS011;24062;47.480;8.768;2022-12-10T10:30:18;7.83;;;2.60;;
38264;SDS011;24062;47.480;8.768;2022-12-10T10:32:49;7.27;;;2.63;;
38264;SDS011;24062;47.480;8.768;2022-12-10T10:35:24;6.23;;;2.23;;
38264;SDS011;24062;47.480;8.768;2022-12-10T10:37:57;3.90;;;2.90;;
38264;SDS011;24062;47.480;8.768;2022-12-10T10:40:28;3.43;;;2.57;;
38264;SDS011;24062;47.480;8.768;2022-12-10T10:42:58;3.93;;;2.43;;
38264;SDS011;24062;47.480;8.768;2022-12-10T10:45:36;7.80;;;2.93;;
38264;SDS011;24062;47.480;8.768;2022-12-10T10:48:10;7.20;;;3.30;;
38264;SDS011;24062;47.480;8.768;2022-12-10T10:50:40;5.53;;;3.33;;
38264;SDS011;24062;47.480;8.768;2022-12-10T10:55:52;6.80;;;2.77;;
38264;SDS011;24062;47.480;8.768;2022-12-10T10:58:22;5.93;;;3.10;;
38264;SDS011;24062;47.480;8.768;2022-12-10T11:00:53;6.73;;;3.30;;
38264;SDS011;24062;47.480;8.768;2022-12-10T11:03:26;3.33;;;2.73;;
38264;SDS011;24062;47.480;8.768;2022-12-10T11:05:55;7.67;;;3.03;;
38264;SDS011;24062;47.480;8.768;2022-12-10T11:08:24;10.10;;;3.57;;
38264;SDS011;24062;47.480;8.768;2022-12-10T11:10:55;4.20;;;2.97;;
38264;SDS011;24062;47.480;8.768;2022-12-10T11:13:27;11.97;;;3.10;;
38264;SDS011;24062;47.480;8.768;2022-12-10T11:15:57;6.10;;;3.03;;
38264;SDS011;24062;47.480;8.768;2022-12-10T11:18:29;3.67;;;2.70;;
38264;SDS011;24062;47.480;8.768;2022-12-10T11:20:59;4.53;;;2.80;;
38264;SDS011;24062;47.480;8.768;2022-12-10T11:23:29;4.23;;;2.67;;
38264;SDS011;24062;47.480;8.768;2022-12-10T11:26:02;5.80;;;2.40;;
38264;SDS011;24062;47.480;8.768;2022-12-10T11:28:55;5.03;;;2.50;;
38264;SDS011;24062;47.480;8.768;2022-12-10T11:31:34;5.33;;;3.37;;
38264;SDS011;24062;47.480;8.768;2022-12-10T11:34:16;7.03;;;2.50;;
38264;SDS011;24062;47.480;8.768;2022-12-10T11:36:50;4.20;;;2.80;;
38264;SDS011;24062;47.480;8.768;2022-12-10T11:39:32;4.47;;;2.77;;
38264;SDS011;24062;47.480;8.768;2022-12-10T11:42:20;5.60;;;3.57;;
38264;SDS011;24062;47.480;8.768;2022-12-10T11:44:52;6.80;;;2.37;;
38264;SDS011;24062;47.480;8.768;2022-12-10T11:47:35;4.40;;;2.40;;
38264;SDS011;24062;47.480;8.768;2022-12-10T11:50:15;5.37;;;3.10;;
38264;SDS011;24062;47.480;8.768;2022-12-10T11:53:02;5.53;;;2.80;;
38264;SDS011;24062;47.480;8.768;2022-12-10T11:55:40;9.03;;;3.20;;
38264;SDS011;24062;47.480;8.768;2022-12-10T11:58:21;4.20;;;2.73;;
38264;SDS011;24062;47.480;8.768;2022-12-10T12:01:06;3.17;;;2.60;;
38264;SDS011;24062;47.480;8.768;2022-12-10T12:03:43;4.17;;;2.23;;
38264;SDS011;24062;47.480;8.768;2022-12-10T12:06:27;2.70;;;2.20;;
38264;SDS011;24062;47.480;8.768;2022-12-10T12:09:08;3.27;;;2.10;;
38264;SDS011;24062;47.480;8.768;2022-12-10T12:11:52;6.90;;;3.13;;
38264;SDS011;24062;47.480;8.768;2022-12-10T12:14:28;8.30;;;2.50;;
38264;SDS011;24062;47.480;8.768;2022-12-10T12:17:02;3.90;;;2.10;;
38264;SDS011;24062;47.480;8.768;2022-12-10T12:19:35;2.77;;;2.13;;
38264;SDS011;24062;47.480;8.768;2022-12-10T12:22:11;4.90;;;2.33;;
38264;SDS011;24062;47.480;8.768;2022-12-10T12:24:41;2.40;;;2.13;;
38264;SDS011;24062;47.480;8.768;2022-12-10T12:27:13;3.70;;;2.60;;
38264;SDS011;24062;47.480;8.768;2022-12-10T12:29:49;2.57;;;2.33;;
38264;SDS011;24062;47.480;8.768;2022-12-10T12:32:24;2.30;;;1.97;;
38264;SDS011;24062;47.480;8.768;2022-12-10T12:34:54;2.93;;;2.20;;
38264;SDS011;24062;47.480;8.768;2022-12-10T12:37:28;2.93;;;2.10;;
38264;SDS011;24062;47.480;8.768;2022-12-10T12:40:02;2.70;;;2.03;;
38264;SDS011;24062;47.480;8.768;2022-12-10T12:42:38;4.93;;;2.60;;
38264;SDS011;24062;47.480;8.768;2022-12-10T12:45:10;4.00;;;2.37;;
38264;SDS011;24062;47.480;8.768;2022-12-10T12:47:41;3.07;;;2.27;;
38264;SDS011;24062;47.480;8.768;2022-12-10T12:50:18;5.30;;;2.03;;
38264;SDS011;24062;47.480;8.768;2022-12-10T12:52:53;2.57;;;1.93;;
38264;SDS011;24062;47.480;8.768;2022-12-10T12:55:24;2.87;;;2.20;;
38264;SDS011;24062;47.480;8.768;2022-12-10T12:58:02;4.10;;;2.37;;
38264;SDS011;24062;47.480;8.768;2022-12-10T13:00:39;2.10;;;1.70;;
38264;SDS011;24062;47.480;8.768;2022-12-10T13:03:17;2.30;;;1.97;;
38264;SDS011;24062;47.480;8.768;2022-12-10T13:05:50;2.30;;;1.60;;
38264;SDS011;24062;47.480;8.768;2022-12-10T13:08:27;3.00;;;1.57;;
38264;SDS011;24062;47.480;8.768;2022-12-10T13:10:57;2.30;;;2.07;;
38264;SDS011;24062;47.480;8.768;2022-12-10T13:13:28;2.47;;;1.93;;
38264;SDS011;24062;47.480;8.768;2022-12-10T13:19:07;2.47;;;2.00;;
38264;SDS011;24062;47.480;8.768;2022-12-10T13:21:56;2.67;;;2.20;;
38264;SDS011;24062;47.480;8.768;2022-12-10T13:27:28;2.07;;;1.80;;
38264;SDS011;24062;47.480;8.768;2022-12-10T13:29:59;2.50;;;1.67;;
38264;SDS011;24062;47.480;8.768;2022-12-10T13:32:42;2.13;;;1.70;;
38264;SDS011;24062;47.480;8.768;2022-12-10T13:35:15;1.93;;;1.40;;
38264;SDS011;24062;47.480;8.768;2022-12-10T13:37:54;2.10;;;1.30;;
38264;SDS011;24062;47.480;8.768;2022-12-10T13:40:25;2.17;;;1.53;;
38264;SDS011;24062;47.480;8.768;2022-12-10T13:43:23;2.57;;;1.57;;
38264;SDS011;24062;47.480;8.768;2022-12-10T13:46:23;2.30;;;1.90;;
38264;SDS011;24062;47.480;8.768;2022-12-10T13:48:52;2.30;;;1.70;;
38264;SDS011;24062;47.480;8.768;2022-12-10T13:51:29;3.53;;;1.50;;
38264;SDS011;24062;47.480;8.768;2022-12-10T13:54:12;2.50;;;1.70;;
38264;SDS011;24062;47.480;8.768;2022-12-10T13:57:00;3.37;;;2.07;;
38264;SDS011;24062;47.480;8.768;2022-12-10T13:59:38;1.93;;;1.60;;
38264;SDS011;24062;47.480;8.768;2022-12-10T14:02:18;2.43;;;1.70;;
38264;SDS011;24062;47.480;8.768;2022-12-10T14:05:10;2.00;;;1.43;;
38264;SDS011;24062;47.480;8.768;2022-12-10T14:07:47;2.10;;;1.73;;
38264;SDS011;24062;47.480;8.768;2022-12-10T14:10:16;1.90;;;1.40;;
38264;SDS011;24062;47.480;8.768;2022-12-10T14:12:49;2.27;;;1.63;;
38264;SDS011;24062;47.480;8.768;2022-12-10T14:15:17;1.80;;;1.33;;
38264;SDS011;24062;47.480;8.768;2022-12-10T14:17:48;2.23;;;1.57;;
38264;SDS011;24062;47.480;8.768;2022-12-10T14:20:17;2.00;;;1.60;;
38264;SDS011;24062;47.480;8.768;2022-12-10T14:22:48;1.70;;;1.30;;
38264;SDS011;24062;47.480;8.768;2022-12-10T14:25:16;4.33;;;1.50;;
38264;SDS011;24062;47.480;8.768;2022-12-10T14:27:49;2.00;;;1.33;;
38264;SDS011;24062;47.480;8.768;2022-12-10T14:30:19;2.27;;;1.47;;
38264;SDS011;24062;47.480;8.768;2022-12-10T14:32:47;2.20;;;1.50;;
38264;SDS011;24062;47.480;8.768;2022-12-10T14:35:16;1.80;;;1.30;;
38264;SDS011;24062;47.480;8.768;2022-12-10T14:37:47;2.00;;;1.43;;
38264;SDS011;24062;47.480;8.768;2022-12-10T14:40:17;2.80;;;1.73;;
38264;SDS011;24062;47.480;8.768;2022-12-10T14:42:49;3.57;;;1.50;;
38264;SDS011;24062;47.480;8.768;2022-12-10T14:45:16;1.90;;;1.40;;
38264;SDS011;24062;47.480;8.768;2022-12-10T14:47:44;1.90;;;1.37;;
38264;SDS011;24062;47.480;8.768;2022-12-10T14:50:14;2.00;;;1.37;;
38264;SDS011;24062;47.480;8.768;2022-12-10T14:52:43;3.00;;;1.50;;
38264;SDS011;24062;47.480;8.768;2022-12-10T14:55:12;1.90;;;1.20;;
38264;SDS011;24062;47.480;8.768;2022-12-10T14:57:41;1.90;;;1.30;;
38264;SDS011;24062;47.480;8.768;2022-12-10T15:00:13;1.90;;;1.20;;
38264;SDS011;24062;47.480;8.768;2022-12-10T15:02:43;2.60;;;1.80;;
38264;SDS011;24062;47.480;8.768;2022-12-10T15:05:12;1.73;;;1.20;;
38264;SDS011;24062;47.480;8.768;2022-12-10T15:07:42;2.10;;;1.40;;
38264;SDS011;24062;47.480;8.768;2022-12-10T15:10:17;4.00;;;2.20;;
38264;SDS011;24062;47.480;8.768;2022-12-10T15:12:49;2.10;;;1.23;;
38264;SDS011;24062;47.480;8.768;2022-12-10T15:15:21;2.10;;;1.40;;
38264;SDS011;24062;47.480;8.768;2022-12-10T15:17:55;2.20;;;1.73;;
38264;SDS011;24062;47.480;8.768;2022-12-10T15:20:26;2.20;;;1.37;;